createdAt,value
2017-10-30T00:00:43.939Z,852.95
2017-10-30T00:01:43.811Z,852.94
2017-10-30T00:02:43.688Z,852.94
2017-10-30T00:03:43.566Z,853.00
2017-10-30T00:04:43.436Z,853.01
2017-10-30T00:05:43.310Z,853.04
2017-10-30T00:06:43.186Z,853.01
2017-10-30T00:07:43.064Z,853.01
2017-10-30T00:08:42.937Z,852.99
2017-10-30T00:09:42.810Z,852.98
2017-10-30T00:10:42.684Z,853.03
2017-10-30T00:11:42.558Z,853.04
2017-10-30T00:12:42.434Z,853.07
2017-10-30T00:13:42.308Z,853.13
2017-10-30T00:14:42.194Z,853.14
2017-10-30T00:15:42.058Z,853.16
2017-10-30T00:16:41.941Z,853.21
2017-10-30T00:17:41.812Z,853.16
2017-10-30T00:18:41.687Z,853.19
2017-10-30T00:19:41.557Z,853.21
2017-10-30T00:20:41.433Z,853.25
2017-10-30T00:21:41.306Z,853.29
2017-10-30T00:22:41.181Z,853.29
2017-10-30T00:23:41.058Z,853.26
2017-10-30T00:24:40.991Z,853.23
2017-10-30T00:25:40.806Z,853.23
2017-10-30T00:26:40.679Z,853.31
2017-10-30T00:27:40.555Z,853.28
2017-10-30T00:28:40.433Z,853.33
2017-10-30T00:29:40.306Z,853.29
2017-10-30T00:30:40.181Z,853.29
2017-10-30T00:31:40.064Z,853.30
2017-10-30T00:32:39.929Z,853.34
2017-10-30T00:33:39.810Z,853.33
2017-10-30T00:34:39.685Z,853.32
2017-10-30T00:35:39.552Z,853.33
2017-10-30T00:36:39.427Z,853.38
2017-10-30T00:37:39.304Z,853.36
2017-10-30T00:38:39.176Z,853.38
2017-10-30T00:39:39.053Z,853.38
2017-10-30T00:40:38.924Z,853.35
2017-10-30T00:41:38.800Z,853.35
2017-10-30T00:42:38.673Z,853.39
2017-10-30T00:43:38.549Z,853.35
2017-10-30T00:44:38.429Z,853.35
2017-10-30T00:45:38.304Z,853.33
2017-10-30T00:46:38.175Z,853.33
2017-10-30T00:47:45.305Z,853.32
2017-10-30T00:49:31.043Z,853.37
2017-10-30T00:50:30.806Z,853.38
2017-10-30T00:52:23.397Z,853.40
2017-10-30T00:53:23.207Z,853.40
2017-10-30T00:55:16.953Z,853.46
2017-10-30T00:56:16.599Z,853.48
2017-10-30T00:58:09.548Z,853.46
2017-10-30T00:59:09.278Z,853.49
2017-10-30T01:01:03.968Z,853.59
2017-10-30T01:02:03.770Z,853.58
2017-10-30T01:03:03.582Z,853.59
2017-10-30T01:04:03.498Z,853.60
2017-10-30T01:05:03.277Z,853.61
2017-10-30T01:06:03.149Z,853.65
2017-10-30T01:07:03.019Z,853.65
2017-10-30T01:08:02.894Z,853.64
2017-10-30T01:09:02.770Z,853.67
2017-10-30T01:10:02.646Z,853.70
2017-10-30T01:11:02.521Z,853.68
2017-10-30T01:12:02.392Z,853.67
2017-10-30T01:13:02.267Z,853.69
2017-10-30T01:14:02.139Z,853.71
2017-10-30T01:15:02.015Z,853.68
2017-10-30T01:16:01.889Z,853.73
2017-10-30T01:17:01.769Z,853.70
2017-10-30T01:18:01.640Z,853.79
2017-10-30T01:19:01.511Z,853.74
2017-10-30T01:20:01.393Z,853.78
2017-10-30T01:21:01.262Z,853.80
2017-10-30T01:22:01.135Z,853.84
2017-10-30T01:23:01.014Z,853.85
2017-10-30T01:24:00.895Z,853.86
2017-10-30T01:25:00.765Z,853.93
2017-10-30T01:26:00.633Z,853.95
2017-10-30T01:27:00.519Z,853.94
2017-10-30T01:28:00.399Z,853.94
2017-10-30T01:29:00.261Z,853.96
2017-10-30T01:30:00.130Z,853.98
2017-10-30T01:31:00.007Z,853.95
2017-10-30T01:31:59.888Z,853.98
2017-10-30T01:32:59.778Z,853.99
2017-10-30T01:33:59.629Z,853.99
2017-10-30T01:34:59.507Z,853.98
2017-10-30T01:35:59.378Z,854.01
2017-10-30T01:36:59.261Z,854.04
2017-10-30T01:37:59.134Z,854.01
2017-10-30T01:38:59.000Z,854.04
2017-10-30T01:39:58.878Z,854.05
2017-10-30T01:40:58.750Z,854.09
2017-10-30T01:41:58.658Z,854.04
2017-10-30T01:42:58.495Z,854.05
2017-10-30T01:43:58.396Z,854.06
2017-10-30T01:44:58.246Z,854.05
2017-10-30T01:45:58.119Z,853.98
2017-10-30T01:46:58.000Z,854.01
2017-10-30T01:47:57.873Z,854.01
2017-10-30T01:48:57.752Z,854.00
2017-10-30T01:49:57.620Z,854.04
2017-10-30T01:50:57.492Z,854.01
2017-10-30T01:51:57.367Z,854.03
2017-10-30T01:52:57.248Z,854.05
2017-10-30T01:53:57.935Z,854.06
2017-10-30T01:54:56.988Z,854.06
2017-10-30T01:55:56.861Z,854.05
2017-10-30T01:56:56.735Z,854.02
2017-10-30T01:57:56.613Z,854.06
2017-10-30T01:58:56.486Z,854.01
2017-10-30T01:59:56.359Z,854.02
2017-10-30T02:00:56.235Z,854.03
2017-10-30T02:02:03.615Z,854.08
2017-10-30T02:03:50.942Z,854.08
2017-10-30T02:04:50.742Z,854.11
2017-10-30T02:05:50.553Z,854.10
2017-10-30T02:06:50.540Z,854.09
2017-10-30T02:07:50.255Z,854.09
2017-10-30T02:08:50.131Z,854.08
2017-10-30T02:09:50.002Z,854.08
2017-10-30T02:10:49.877Z,854.08
2017-10-30T02:11:49.750Z,854.06
2017-10-30T02:12:49.631Z,854.09
2017-10-30T02:13:49.504Z,854.08
2017-10-30T02:14:49.372Z,854.10
2017-10-30T02:15:49.250Z,854.14
2017-10-30T02:16:49.121Z,854.15
2017-10-30T02:17:48.995Z,854.11
2017-10-30T02:18:48.870Z,854.07
2017-10-30T02:19:48.742Z,854.05
2017-10-30T02:20:48.620Z,854.08
2017-10-30T02:21:48.495Z,854.13
2017-10-30T02:22:48.364Z,854.15
2017-10-30T02:23:48.238Z,854.16
2017-10-30T02:24:48.114Z,854.17
2017-10-30T02:25:47.986Z,854.17
2017-10-30T02:26:47.862Z,854.13
2017-10-30T02:27:47.735Z,854.15
2017-10-30T02:28:47.612Z,854.10
2017-10-30T02:29:47.486Z,854.11
2017-10-30T02:30:47.357Z,854.13
2017-10-30T02:31:47.229Z,854.12
2017-10-30T02:32:47.107Z,854.14
2017-10-30T02:33:46.979Z,854.15
2017-10-30T02:34:46.850Z,854.17
2017-10-30T02:35:46.727Z,854.18
2017-10-30T02:36:46.598Z,854.18
2017-10-30T02:37:46.473Z,854.21
2017-10-30T02:38:46.348Z,854.22
2017-10-30T02:39:46.224Z,854.19
2017-10-30T02:40:46.095Z,854.21
2017-10-30T02:41:45.968Z,854.23
2017-10-30T02:42:45.843Z,854.22
2017-10-30T02:43:45.719Z,854.21
2017-10-30T02:44:45.589Z,854.21
2017-10-30T02:45:45.468Z,854.20
2017-10-30T02:46:45.337Z,854.18
2017-10-30T02:47:45.236Z,854.23
2017-10-30T02:48:45.084Z,854.23
2017-10-30T02:49:44.963Z,854.23
2017-10-30T02:50:44.829Z,854.23
2017-10-30T02:51:44.709Z,854.27
2017-10-30T02:52:44.581Z,854.25
2017-10-30T02:53:46.407Z,854.21
2017-10-30T02:54:44.327Z,854.24
2017-10-30T02:55:44.202Z,854.22
2017-10-30T02:56:44.073Z,854.27
2017-10-30T02:57:43.947Z,854.28
2017-10-30T02:58:43.822Z,854.33
2017-10-30T02:59:43.695Z,854.33
2017-10-30T03:00:43.570Z,854.37
2017-10-30T03:01:43.443Z,854.32
2017-10-30T03:02:43.318Z,854.36
2017-10-30T03:03:43.189Z,854.37
2017-10-30T03:04:43.064Z,854.38
2017-10-30T03:05:42.940Z,854.39
2017-10-30T03:06:42.809Z,854.39
2017-10-30T03:07:42.685Z,854.41
2017-10-30T03:08:42.557Z,854.40
2017-10-30T03:09:42.432Z,854.42
2017-10-30T03:10:42.317Z,854.41
2017-10-30T03:11:42.186Z,854.46
2017-10-30T03:12:42.050Z,854.43
2017-10-30T03:13:41.926Z,854.47
2017-10-30T03:14:41.798Z,854.47
2017-10-30T03:15:41.671Z,854.49
2017-10-30T03:16:41.884Z,854.50
2017-10-30T03:17:41.420Z,854.48
2017-10-30T03:18:41.293Z,854.51
2017-10-30T03:19:41.167Z,854.51
2017-10-30T03:20:41.077Z,854.51
2017-10-30T03:21:40.913Z,854.58
2017-10-30T03:22:40.786Z,854.53
2017-10-30T03:23:40.659Z,854.58
2017-10-30T03:24:40.536Z,854.55
2017-10-30T03:25:40.416Z,854.54
2017-10-30T03:26:40.284Z,854.54
2017-10-30T03:27:40.243Z,854.52
2017-10-30T03:28:40.027Z,854.51
2017-10-30T03:29:39.900Z,854.57
2017-10-30T03:30:39.776Z,854.61
2017-10-30T03:31:39.647Z,854.57
2017-10-30T03:32:39.522Z,854.55
2017-10-30T03:33:39.396Z,854.58
2017-10-30T03:34:39.270Z,854.60
2017-10-30T03:35:39.174Z,854.59
2017-10-30T03:36:39.016Z,854.57
2017-10-30T03:37:38.889Z,854.56
2017-10-30T03:38:38.760Z,854.54
2017-10-30T03:39:38.653Z,854.58
2017-10-30T03:40:38.509Z,854.62
2017-10-30T03:41:38.384Z,854.58
2017-10-30T03:42:38.255Z,854.61
2017-10-30T03:43:38.128Z,854.66
2017-10-30T03:44:38.002Z,854.72
2017-10-30T03:45:37.883Z,854.63
2017-10-30T03:46:37.749Z,854.66
2017-10-30T03:47:37.632Z,854.68
2017-10-30T03:48:37.494Z,854.67
2017-10-30T03:49:37.369Z,854.72
2017-10-30T03:50:37.242Z,854.76
2017-10-30T03:51:37.118Z,854.79
2017-10-30T03:52:36.995Z,854.83
2017-10-30T03:53:36.865Z,854.81
2017-10-30T03:54:36.737Z,854.84
2017-10-30T03:55:36.608Z,854.85
2017-10-30T03:56:36.484Z,854.86
2017-10-30T03:57:36.355Z,854.80
2017-10-30T03:58:36.229Z,854.79
2017-10-30T03:59:36.102Z,854.83
2017-10-30T04:00:35.975Z,854.89
2017-10-30T04:01:35.850Z,854.89
2017-10-30T04:02:35.721Z,854.89
2017-10-30T04:03:35.594Z,854.92
2017-10-30T04:04:35.467Z,854.89
2017-10-30T04:05:35.345Z,854.88
2017-10-30T04:06:35.214Z,854.89
2017-10-30T04:07:35.089Z,854.89
2017-10-30T04:08:34.962Z,854.93
2017-10-30T04:09:34.837Z,854.91
2017-10-30T04:10:34.705Z,854.89
2017-10-30T04:11:34.580Z,854.91
2017-10-30T04:12:34.454Z,854.94
2017-10-30T04:13:34.331Z,854.94
2017-10-30T04:14:34.198Z,854.93
2017-10-30T04:15:34.078Z,854.93
2017-10-30T04:16:33.948Z,854.93
2017-10-30T04:17:33.820Z,854.97
2017-10-30T04:18:33.694Z,854.98
2017-10-30T04:19:33.566Z,855.03
2017-10-30T04:20:33.439Z,855.03
2017-10-30T04:21:33.320Z,855.00
2017-10-30T04:22:33.184Z,854.95
2017-10-30T04:23:33.062Z,854.95
2017-10-30T04:24:32.933Z,855.00
2017-10-30T04:25:32.840Z,855.05
2017-10-30T04:26:32.680Z,855.09
2017-10-30T04:27:32.554Z,855.11
2017-10-30T04:28:32.426Z,855.06
2017-10-30T04:29:32.298Z,855.07
2017-10-30T04:30:32.172Z,855.07
2017-10-30T04:31:32.046Z,855.08
2017-10-30T04:32:31.924Z,855.10
2017-10-30T04:33:31.791Z,855.11
2017-10-30T04:34:31.666Z,855.15
2017-10-30T04:35:31.538Z,855.19
2017-10-30T04:36:31.411Z,855.23
2017-10-30T04:37:31.355Z,855.25
2017-10-30T04:38:31.925Z,855.23
2017-10-30T04:39:31.038Z,855.25
2017-10-30T04:40:30.904Z,855.24
2017-10-30T04:41:30.782Z,855.24
2017-10-30T04:42:30.650Z,855.26
2017-10-30T04:43:30.523Z,855.30
2017-10-30T04:44:30.396Z,855.29
2017-10-30T04:45:30.269Z,855.23
2017-10-30T04:46:30.141Z,855.24
2017-10-30T04:47:30.015Z,855.24
2017-10-30T04:48:29.923Z,855.27
2017-10-30T04:49:29.762Z,855.31
2017-10-30T04:50:29.635Z,855.30
2017-10-30T04:51:29.508Z,855.31
2017-10-30T04:52:29.382Z,855.33
2017-10-30T04:53:29.252Z,855.36
2017-10-30T04:54:29.130Z,855.35
2017-10-30T04:55:29.038Z,855.34
2017-10-30T04:56:28.911Z,855.31
2017-10-30T04:57:28.746Z,855.36
2017-10-30T04:58:28.619Z,855.39
2017-10-30T04:59:28.492Z,855.42
2017-10-30T05:00:28.363Z,855.43
2017-10-30T05:01:28.240Z,855.41
2017-10-30T05:02:28.109Z,855.46
2017-10-30T05:03:27.984Z,855.45
2017-10-30T05:04:27.870Z,855.43
2017-10-30T05:05:27.839Z,855.42
2017-10-30T05:06:27.604Z,855.41
2017-10-30T05:07:27.501Z,855.39
2017-10-30T05:08:27.401Z,855.36
2017-10-30T05:09:29.416Z,855.35
2017-10-30T05:10:28.354Z,855.40
2017-10-30T05:11:26.994Z,855.35
2017-10-30T05:12:26.842Z,855.37
2017-10-30T05:13:26.740Z,855.40
2017-10-30T05:14:26.589Z,855.40
2017-10-30T05:15:26.463Z,855.39
2017-10-30T05:16:26.337Z,855.36
2017-10-30T05:17:26.204Z,855.35
2017-10-30T05:18:26.112Z,855.36
2017-10-30T05:19:25.949Z,855.37
2017-10-30T05:20:25.824Z,855.45
2017-10-30T05:21:25.699Z,855.47
2017-10-30T05:22:25.568Z,855.48
2017-10-30T05:23:25.441Z,855.46
2017-10-30T05:24:25.314Z,855.46
2017-10-30T05:25:25.187Z,855.47
2017-10-30T05:26:25.063Z,855.46
2017-10-30T05:27:24.935Z,855.50
2017-10-30T05:28:24.808Z,855.52
2017-10-30T05:29:24.677Z,855.53
2017-10-30T05:30:24.549Z,855.55
2017-10-30T05:31:24.423Z,855.53
2017-10-30T05:32:24.294Z,855.54
2017-10-30T05:33:24.169Z,855.55
2017-10-30T05:34:24.042Z,855.54
2017-10-30T05:35:23.913Z,855.51
2017-10-30T05:36:23.786Z,855.49
2017-10-30T05:37:23.659Z,855.54
2017-10-30T05:38:23.530Z,855.55
2017-10-30T05:39:23.402Z,855.55
2017-10-30T05:40:23.294Z,855.59
2017-10-30T05:41:23.936Z,855.60
2017-10-30T05:42:24.008Z,855.63
2017-10-30T05:43:22.897Z,855.62
2017-10-30T05:44:22.989Z,855.59
2017-10-30T05:45:22.647Z,855.62
2017-10-30T05:46:22.513Z,855.59
2017-10-30T05:47:22.499Z,855.60
2017-10-30T05:48:22.467Z,855.57
2017-10-30T05:49:22.136Z,855.57
2017-10-30T05:50:22.003Z,855.54
2017-10-30T05:51:21.876Z,855.53
2017-10-30T05:52:21.748Z,855.56
2017-10-30T05:53:21.621Z,855.58
2017-10-30T05:54:21.495Z,855.60
2017-10-30T05:55:21.367Z,855.60
2017-10-30T05:56:21.243Z,855.59
2017-10-30T05:57:21.111Z,855.58
2017-10-30T05:58:20.983Z,855.55
2017-10-30T05:59:20.855Z,855.61
2017-10-30T06:00:20.727Z,855.64
2017-10-30T06:01:20.599Z,855.66
2017-10-30T06:02:20.477Z,855.65
2017-10-30T06:03:20.346Z,855.65
2017-10-30T06:04:20.220Z,855.64
2017-10-30T06:05:20.104Z,855.65
2017-10-30T06:06:19.962Z,855.64
2017-10-30T06:07:19.835Z,855.66
2017-10-30T06:08:19.709Z,855.69
2017-10-30T06:09:19.587Z,855.67
2017-10-30T06:10:19.453Z,855.66
2017-10-30T06:11:19.925Z,855.68
2017-10-30T06:12:19.199Z,855.68
2017-10-30T06:13:19.071Z,855.71
2017-10-30T06:14:18.945Z,855.75
2017-10-30T06:15:18.821Z,855.75
2017-10-30T06:16:18.688Z,855.77
2017-10-30T06:17:18.783Z,855.78
2017-10-30T06:18:18.432Z,855.78
2017-10-30T06:19:18.305Z,855.80
2017-10-30T06:20:18.177Z,855.81
2017-10-30T06:21:18.053Z,855.87
2017-10-30T06:22:17.924Z,855.84
2017-10-30T06:23:17.802Z,855.88
2017-10-30T06:24:17.667Z,855.91
2017-10-30T06:25:17.543Z,855.91
2017-10-30T06:26:17.413Z,855.93
2017-10-30T06:27:17.285Z,855.90
2017-10-30T06:28:17.159Z,855.93
2017-10-30T06:29:17.033Z,855.96
2017-10-30T06:30:16.905Z,856.00
2017-10-30T06:31:16.777Z,856.00
2017-10-30T06:32:16.650Z,855.94
2017-10-30T06:33:16.524Z,855.98
2017-10-30T06:34:16.396Z,855.96
2017-10-30T06:35:16.267Z,856.02
2017-10-30T06:36:16.143Z,856.03
2017-10-30T06:37:16.019Z,856.06
2017-10-30T06:38:15.896Z,856.05
2017-10-30T06:39:15.768Z,856.10
2017-10-30T06:40:15.925Z,856.12
2017-10-30T06:41:15.507Z,856.13
2017-10-30T06:42:15.378Z,856.13
2017-10-30T06:43:15.256Z,856.15
2017-10-30T06:44:15.126Z,856.14
2017-10-30T06:45:14.999Z,856.13
2017-10-30T06:46:14.873Z,856.16
2017-10-30T06:47:14.744Z,856.19
2017-10-30T06:48:14.617Z,856.22
2017-10-30T06:49:14.489Z,856.19
2017-10-30T06:50:14.362Z,856.18
2017-10-30T06:51:14.238Z,856.24
2017-10-30T06:52:14.112Z,856.23
2017-10-30T06:53:13.983Z,856.27
2017-10-30T06:54:13.855Z,856.31
2017-10-30T06:55:13.726Z,856.31
2017-10-30T06:56:13.600Z,856.32
2017-10-30T06:57:13.474Z,856.32
2017-10-30T06:58:13.346Z,856.35
2017-10-30T06:59:13.221Z,856.32
2017-10-30T07:00:13.091Z,856.33
2017-10-30T07:01:12.966Z,856.36
2017-10-30T07:02:12.841Z,856.34
2017-10-30T07:03:12.710Z,856.31
2017-10-30T07:04:12.966Z,856.34
2017-10-30T07:05:12.457Z,856.34
2017-10-30T07:06:12.332Z,856.38
2017-10-30T07:07:12.203Z,856.36
2017-10-30T07:08:12.078Z,856.40
2017-10-30T07:09:11.950Z,856.38
2017-10-30T07:10:11.822Z,856.40
2017-10-30T07:11:11.775Z,856.42
2017-10-30T07:12:11.570Z,856.44
2017-10-30T07:13:11.442Z,856.49
2017-10-30T07:14:11.314Z,856.48
2017-10-30T07:15:11.190Z,856.52
2017-10-30T07:16:11.069Z,856.56
2017-10-30T07:17:10.934Z,856.60
2017-10-30T07:18:10.807Z,856.60
2017-10-30T07:19:10.712Z,856.65
2017-10-30T07:20:10.551Z,856.66
2017-10-30T07:21:10.426Z,856.68
2017-10-30T07:22:10.295Z,856.64
2017-10-30T07:23:10.171Z,856.65
2017-10-30T07:24:10.043Z,856.70
2017-10-30T07:25:09.920Z,856.66
2017-10-30T07:26:09.787Z,856.66
2017-10-30T07:27:09.661Z,856.64
2017-10-30T07:28:09.536Z,856.64
2017-10-30T07:29:09.410Z,856.65
2017-10-30T07:30:09.279Z,856.71
2017-10-30T07:31:09.150Z,856.72
2017-10-30T07:32:09.026Z,856.67
2017-10-30T07:33:08.897Z,856.70
2017-10-30T07:34:08.768Z,856.71
2017-10-30T07:35:08.641Z,856.71
2017-10-30T07:36:08.518Z,856.74
2017-10-30T07:37:08.388Z,856.73
2017-10-30T07:38:08.259Z,856.72
2017-10-30T07:39:08.137Z,856.72
2017-10-30T07:40:08.006Z,856.72
2017-10-30T07:41:07.883Z,856.79
2017-10-30T07:42:07.752Z,856.77
2017-10-30T07:43:07.626Z,856.79
2017-10-30T07:44:07.500Z,856.76
2017-10-30T07:45:07.370Z,856.73
2017-10-30T07:46:07.243Z,856.76
2017-10-30T07:47:07.115Z,856.76
2017-10-30T07:48:06.986Z,856.76
2017-10-30T07:49:06.862Z,856.74
2017-10-30T07:50:06.736Z,856.74
2017-10-30T07:51:06.608Z,856.77
2017-10-30T07:52:06.482Z,856.75
2017-10-30T07:53:06.354Z,856.77
2017-10-30T07:54:06.226Z,856.77
2017-10-30T07:55:06.100Z,856.78
2017-10-30T07:56:05.975Z,856.82
2017-10-30T07:57:05.844Z,856.80
2017-10-30T07:58:05.716Z,856.84
2017-10-30T07:59:05.589Z,856.82
2017-10-30T08:00:05.464Z,856.83
2017-10-30T08:01:05.338Z,856.74
2017-10-30T08:02:05.210Z,856.81
2017-10-30T08:03:05.086Z,856.81
2017-10-30T08:04:04.961Z,856.85
2017-10-30T08:05:04.834Z,856.84
2017-10-30T08:06:04.707Z,856.85
2017-10-30T08:07:04.583Z,856.84
2017-10-30T08:08:04.457Z,856.85
2017-10-30T08:09:04.329Z,856.82
2017-10-30T08:10:04.217Z,856.84
2017-10-30T08:11:04.076Z,856.85
2017-10-30T08:12:03.953Z,856.86
2017-10-30T08:13:03.825Z,856.87
2017-10-30T08:14:03.699Z,856.84
2017-10-30T08:15:03.574Z,856.89
2017-10-30T08:16:03.451Z,856.85
2017-10-30T08:17:03.321Z,856.88
2017-10-30T08:18:03.196Z,856.81
2017-10-30T08:19:03.070Z,856.88
2017-10-30T08:20:02.944Z,856.88
2017-10-30T08:21:02.820Z,856.87
2017-10-30T08:22:02.694Z,856.85
2017-10-30T08:23:02.567Z,856.90
2017-10-30T08:24:02.443Z,856.90
2017-10-30T08:25:02.314Z,856.89
2017-10-30T08:26:02.236Z,856.92
2017-10-30T08:27:02.071Z,856.89
2017-10-30T08:28:02.057Z,856.93
2017-10-30T08:29:01.816Z,856.97
2017-10-30T08:30:01.699Z,856.99
2017-10-30T08:31:01.573Z,857.00
2017-10-30T08:32:01.441Z,856.89
2017-10-30T08:33:01.319Z,856.92
2017-10-30T08:34:01.195Z,856.94
2017-10-30T08:35:01.132Z,856.92
2017-10-30T08:36:00.949Z,856.91
2017-10-30T08:37:00.824Z,856.94
2017-10-30T08:38:00.698Z,856.90
2017-10-30T08:39:00.579Z,856.93
2017-10-30T08:40:00.456Z,856.94
2017-10-30T08:41:00.332Z,856.93
2017-10-30T08:42:00.215Z,856.96
2017-10-30T08:43:00.090Z,856.93
2017-10-30T08:43:59.967Z,856.86
2017-10-30T08:44:59.843Z,856.90
2017-10-30T08:45:59.726Z,856.84
2017-10-30T08:46:59.603Z,856.82
2017-10-30T08:47:59.479Z,856.84
2017-10-30T08:48:59.357Z,856.84
2017-10-30T08:49:59.232Z,856.84
2017-10-30T08:50:59.111Z,856.80
2017-10-30T08:51:58.992Z,856.82
2017-10-30T08:52:58.866Z,856.84
2017-10-30T08:53:58.742Z,856.81
2017-10-30T08:54:58.616Z,856.84
2017-10-30T08:55:59.463Z,856.84
2017-10-30T08:56:58.373Z,856.84
2017-10-30T08:57:58.365Z,856.90
2017-10-30T08:58:58.123Z,856.85
2017-10-30T08:59:58.007Z,856.92
2017-10-30T09:00:57.890Z,856.88
2017-10-30T09:01:57.768Z,856.88
2017-10-30T09:02:57.631Z,856.90
2017-10-30T09:03:57.510Z,856.93
2017-10-30T09:04:57.399Z,856.93
2017-10-30T09:05:57.973Z,857.00
2017-10-30T09:06:57.137Z,856.95
2017-10-30T09:07:57.011Z,857.01
2017-10-30T09:08:56.887Z,856.98
2017-10-30T09:09:56.765Z,856.96
2017-10-30T09:10:56.639Z,856.95
2017-10-30T09:11:56.520Z,856.94
2017-10-30T09:12:56.391Z,856.96
2017-10-30T09:13:56.268Z,856.98
2017-10-30T09:14:56.142Z,856.96
2017-10-30T09:15:56.017Z,856.99
2017-10-30T09:16:55.896Z,857.06
2017-10-30T09:17:55.776Z,857.03
2017-10-30T09:18:55.644Z,856.99
2017-10-30T09:19:55.522Z,857.04
2017-10-30T09:20:55.398Z,857.07
2017-10-30T09:21:55.272Z,857.07
2017-10-30T09:22:55.148Z,857.06
2017-10-30T09:23:55.048Z,857.09
2017-10-30T09:24:54.903Z,857.09
2017-10-30T09:25:54.775Z,857.09
2017-10-30T09:26:54.656Z,857.08
2017-10-30T09:27:54.525Z,857.12
2017-10-30T09:28:54.404Z,857.10
2017-10-30T09:29:54.283Z,857.12
2017-10-30T09:30:54.155Z,857.15
2017-10-30T09:31:54.032Z,857.12
2017-10-30T09:32:53.909Z,857.13
2017-10-30T09:33:53.784Z,857.18
2017-10-30T09:34:53.976Z,857.22
2017-10-30T09:35:53.542Z,857.24
2017-10-30T09:36:53.418Z,857.27
2017-10-30T09:37:53.294Z,857.29
2017-10-30T09:38:53.172Z,857.37
2017-10-30T09:39:53.049Z,857.36
2017-10-30T09:40:52.928Z,857.35
2017-10-30T09:41:52.808Z,857.37
2017-10-30T09:42:52.687Z,857.28
2017-10-30T09:43:52.568Z,857.33
2017-10-30T09:44:52.447Z,857.32
2017-10-30T09:45:52.328Z,857.31
2017-10-30T09:46:52.207Z,857.31
2017-10-30T09:47:52.092Z,857.38
2017-10-30T09:48:51.976Z,857.35
2017-10-30T09:49:51.854Z,857.36
2017-10-30T09:50:51.734Z,857.32
2017-10-30T09:51:51.618Z,857.36
2017-10-30T09:52:51.504Z,857.36
2017-10-30T09:53:51.389Z,857.38
2017-10-30T09:54:51.271Z,857.32
2017-10-30T09:55:51.239Z,857.31
2017-10-30T09:56:51.164Z,857.30
2017-10-30T09:57:50.921Z,857.29
2017-10-30T09:58:50.806Z,857.31
2017-10-30T09:59:50.695Z,857.26
2017-10-30T10:00:50.577Z,857.25
2017-10-30T10:01:50.461Z,857.28
2017-10-30T10:02:50.350Z,857.23
2017-10-30T10:03:50.233Z,857.23
2017-10-30T10:04:50.121Z,857.27
2017-10-30T10:05:50.006Z,857.28
2017-10-30T10:06:49.891Z,857.30
2017-10-30T10:07:49.780Z,857.25
2017-10-30T10:08:49.665Z,857.33
2017-10-30T10:09:49.552Z,857.30
2017-10-30T10:10:49.440Z,857.27
2017-10-30T10:11:49.329Z,857.29
2017-10-30T10:12:49.213Z,857.28
2017-10-30T10:13:49.100Z,857.31
2017-10-30T10:14:48.988Z,857.31
2017-10-30T10:15:48.879Z,857.34
2017-10-30T10:16:48.764Z,857.32
2017-10-30T10:17:48.651Z,857.34
2017-10-30T10:18:48.540Z,857.35
2017-10-30T10:19:48.428Z,857.31
2017-10-30T10:20:48.327Z,857.30
2017-10-30T10:21:48.204Z,857.31
2017-10-30T10:22:48.093Z,857.28
2017-10-30T10:23:47.979Z,857.25
2017-10-30T10:24:47.868Z,857.26
2017-10-30T10:25:47.754Z,857.24
2017-10-30T10:26:47.646Z,857.21
2017-10-30T10:27:47.530Z,857.19
2017-10-30T10:28:47.417Z,857.19
2017-10-30T10:29:47.304Z,857.23
2017-10-30T10:30:47.192Z,857.20
2017-10-30T10:31:47.079Z,857.13
2017-10-30T10:32:46.966Z,857.08
2017-10-30T10:33:46.850Z,857.15
2017-10-30T10:34:46.737Z,857.10
2017-10-30T10:35:46.622Z,857.05
2017-10-30T10:36:46.512Z,857.00
2017-10-30T10:37:46.389Z,857.00
2017-10-30T10:38:46.273Z,856.97
2017-10-30T10:39:46.157Z,857.01
2017-10-30T10:40:46.040Z,856.96
2017-10-30T10:41:45.924Z,856.98
2017-10-30T10:42:45.806Z,856.99
2017-10-30T10:43:45.691Z,856.95
2017-10-30T10:44:45.569Z,856.95
2017-10-30T10:45:45.450Z,856.95
2017-10-30T10:46:45.332Z,856.94
2017-10-30T10:47:45.212Z,856.95
2017-10-30T10:48:45.092Z,856.95
2017-10-30T10:49:44.976Z,856.89
2017-10-30T10:50:44.857Z,856.93
2017-10-30T10:51:44.741Z,857.03
2017-10-30T10:52:44.614Z,856.98
2017-10-30T10:53:44.494Z,856.95
2017-10-30T10:54:44.373Z,856.95
2017-10-30T10:55:44.255Z,856.91
2017-10-30T10:56:44.131Z,857.01
2017-10-30T10:57:44.010Z,856.93
2017-10-30T10:58:43.889Z,856.95
2017-10-30T10:59:43.767Z,856.95
2017-10-30T11:00:43.647Z,856.91
2017-10-30T11:01:43.524Z,856.88
2017-10-30T11:02:43.996Z,856.87
2017-10-30T11:03:43.283Z,856.84
2017-10-30T11:04:43.161Z,856.86
2017-10-30T11:05:43.038Z,856.84
2017-10-30T11:06:42.920Z,856.90
2017-10-30T11:07:42.796Z,856.91
2017-10-30T11:08:42.674Z,856.90
2017-10-30T11:09:42.550Z,856.87
2017-10-30T11:10:42.426Z,856.92
2017-10-30T11:11:42.303Z,856.95
2017-10-30T11:12:42.183Z,856.98
2017-10-30T11:13:42.058Z,856.98
2017-10-30T11:14:41.934Z,856.96
2017-10-30T11:15:41.814Z,856.93
2017-10-30T11:16:41.693Z,856.91
2017-10-30T11:17:41.582Z,856.91
2017-10-30T11:18:41.445Z,856.84
2017-10-30T11:19:41.323Z,856.86
2017-10-30T11:20:41.198Z,856.86
2017-10-30T11:21:41.074Z,856.84
2017-10-30T11:22:41.012Z,856.85
2017-10-30T11:23:40.830Z,856.87
2017-10-30T11:24:40.708Z,856.89
2017-10-30T11:25:40.582Z,856.91
2017-10-30T11:26:40.459Z,856.88
2017-10-30T11:27:40.337Z,856.93
2017-10-30T11:28:40.211Z,856.89
2017-10-30T11:29:40.092Z,856.91
2017-10-30T11:30:39.967Z,856.92
2017-10-30T11:31:39.994Z,856.89
2017-10-30T11:32:39.720Z,856.87
2017-10-30T11:33:39.601Z,856.90
2017-10-30T11:34:39.473Z,856.84
2017-10-30T11:35:39.348Z,856.88
2017-10-30T11:36:39.223Z,856.92
2017-10-30T11:37:39.102Z,856.92
2017-10-30T11:38:38.975Z,857.00
2017-10-30T11:39:38.852Z,856.96
2017-10-30T11:40:38.730Z,856.90
2017-10-30T11:41:38.605Z,856.91
2017-10-30T11:42:38.482Z,856.90
2017-10-30T11:43:38.370Z,856.96
2017-10-30T11:44:38.359Z,856.90
2017-10-30T11:45:38.109Z,856.92
2017-10-30T11:46:37.983Z,856.87
2017-10-30T11:47:37.861Z,856.84
2017-10-30T11:48:37.740Z,856.89
2017-10-30T11:49:37.610Z,856.91
2017-10-30T11:50:37.489Z,856.88
2017-10-30T11:51:37.368Z,856.93
2017-10-30T11:52:37.241Z,856.87
2017-10-30T11:53:37.117Z,856.93
2017-10-30T11:54:36.992Z,856.91
2017-10-30T11:55:36.866Z,856.95
2017-10-30T11:56:36.742Z,856.93
2017-10-30T11:57:36.617Z,856.93
2017-10-30T11:58:36.493Z,856.96
2017-10-30T11:59:36.370Z,856.92
2017-10-30T12:00:36.246Z,856.92
2017-10-30T12:01:36.122Z,856.90
2017-10-30T12:02:35.995Z,856.91
2017-10-30T12:03:35.870Z,856.88
2017-10-30T12:04:35.746Z,856.89
2017-10-30T12:05:35.622Z,856.86
2017-10-30T12:06:35.511Z,856.87
2017-10-30T12:07:35.374Z,856.85
2017-10-30T12:08:35.249Z,856.91
2017-10-30T12:09:35.123Z,856.94
2017-10-30T12:10:34.999Z,856.87
2017-10-30T12:11:34.878Z,856.88
2017-10-30T12:12:34.751Z,856.86
2017-10-30T12:13:34.626Z,856.92
2017-10-30T12:14:34.502Z,856.88
2017-10-30T12:15:34.378Z,856.89
2017-10-30T12:16:34.253Z,856.88
2017-10-30T12:17:34.235Z,856.90
2017-10-30T12:18:34.006Z,856.88
2017-10-30T12:19:33.893Z,856.90
2017-10-30T12:20:33.757Z,856.90
2017-10-30T12:21:33.636Z,856.92
2017-10-30T12:22:33.511Z,856.91
2017-10-30T12:23:33.387Z,856.86
2017-10-30T12:24:33.258Z,856.89
2017-10-30T12:25:33.132Z,856.88
2017-10-30T12:26:33.009Z,856.94
2017-10-30T12:27:32.885Z,856.96
2017-10-30T12:28:32.760Z,857.00
2017-10-30T12:29:32.635Z,856.96
2017-10-30T12:30:32.547Z,856.99
2017-10-30T12:31:32.395Z,856.97
2017-10-30T12:32:32.269Z,856.99